Time;durP1;ratioP1;P1;durP2;ratioP2;P2;SDS_P1;SDS_P2;PMS_P1;PMS_P2;Temp;Humidity;BMP_temperature;BMP_pressure;BME280_temperature;BME280_humidity;BME280_pressure;Samples;Min_cycle;Max_cycle;Signal;HPM_P1;HPM_P2
2023/07/13 00:01:43;;;;;;;0.20;0.20;;;20.30;99.30;;;;;;4440703;32;20454;-66
2023/07/13 00:04:09;;;;;;;1.67;0.88;;;20.20;99.60;;;;;;4438121;32;20089;-66
2023/07/13 00:06:35;;;;;;;0.30;0.30;;;20.10;99.80;;;;;;4439537;32;20120;-66
2023/07/13 00:09:01;;;;;;;0.30;0.30;;;20.00;99.90;;;;;;4436807;32;20471;-66
2023/07/13 00:11:26;;;;;;;2.92;1.23;;;20.00;99.90;;;;;;4435948;32;20061;-66
2023/07/13 00:13:52;;;;;;;0.30;0.30;;;19.90;99.90;;;;;;4433246;32;20520;-66
2023/07/13 00:16:18;;;;;;;0.20;0.20;;;19.80;99.90;;;;;;4436330;32;20104;-66
2023/07/13 00:18:44;;;;;;;0.35;0.35;;;19.80;99.90;;;;;;4437535;32;20148;-66
2023/07/13 00:21:10;;;;;;;0.30;0.30;;;19.90;99.90;;;;;;4440647;32;20069;-66
2023/07/13 00:23:40;;;;;;;0.28;0.28;;;19.80;99.90;;;;;;4437543;32;20086;-66
2023/07/13 00:26:08;;;;;;;0.30;0.30;;;19.70;99.90;;;;;;4435520;32;20092;-66
2023/07/13 00:28:34;;;;;;;0.25;0.25;;;19.70;99.90;;;;;;4433976;32;20079;-66
2023/07/13 00:31:01;;;;;;;0.30;0.30;;;19.80;99.90;;;;;;4441243;32;20061;-65
2023/07/13 00:33:28;;;;;;;0.52;0.43;;;19.70;99.90;;;;;;4438943;32;20077;-66
2023/07/13 00:35:55;;;;;;;0.30;0.30;;;19.70;99.90;;;;;;4439637;32;20465;-66
2023/07/13 00:38:21;;;;;;;0.20;0.20;;;19.70;99.90;;;;;;4438691;32;20405;-66
2023/07/13 00:40:46;;;;;;;0.22;0.22;;;19.70;99.90;;;;;;4439554;32;20061;-66
2023/07/13 00:43:16;;;;;;;0.37;0.37;;;19.80;99.90;;;;;;4433897;32;20085;-66
2023/07/13 00:45:45;;;;;;;0.50;0.50;;;19.80;99.90;;;;;;4438788;32;20062;-66
2023/07/13 00:48:14;;;;;;;0.80;0.70;;;19.80;99.90;;;;;;4441103;32;20073;-66
2023/07/13 00:50:41;;;;;;;0.30;0.30;;;19.50;99.90;;;;;;4441644;32;20049;-66
2023/07/13 00:53:07;;;;;;;0.40;0.40;;;19.50;99.90;;;;;;4437089;32;20082;-66
2023/07/13 00:55:33;;;;;;;0.40;0.40;;;19.50;99.90;;;;;;4444211;32;20065;-66
2023/07/13 00:57:59;;;;;;;0.20;0.20;;;19.60;99.90;;;;;;4445622;32;20090;-66
2023/07/13 01:00:26;;;;;;;0.20;0.20;;;19.50;99.90;;;;;;4436651;32;20065;-66
2023/07/13 01:02:52;;;;;;;0.37;0.37;;;19.40;99.90;;;;;;4435707;32;20069;-66
2023/07/13 01:05:20;;;;;;;0.73;0.73;;;19.40;99.90;;;;;;4440694;32;20139;-66
2023/07/13 01:07:49;;;;;;;0.35;0.30;;;19.30;99.90;;;;;;4436718;32;20065;-65
2023/07/13 01:10:15;;;;;;;0.20;0.20;;;19.20;99.90;;;;;;4436109;32;20066;-67
2023/07/13 01:12:41;;;;;;;2.05;0.75;;;19.30;99.90;;;;;;4444743;32;20243;-67
2023/07/13 01:15:44;;;;;;;0.32;0.32;;;19.30;99.90;;;;;;4445620;32;20093;-66
2023/07/13 01:18:12;;;;;;;0.40;0.40;;;19.40;99.90;;;;;;4433753;32;20073;-66
2023/07/13 01:20:39;;;;;;;0.20;0.20;;;19.30;99.90;;;;;;4439229;32;20070;-66
2023/07/13 01:23:06;;;;;;;0.20;0.20;;;19.10;99.90;;;;;;4437683;32;20056;-66
2023/07/13 01:25:32;;;;;;;0.30;0.30;;;19.10;99.90;;;;;;4440923;32;20088;-66
2023/07/13 01:27:57;;;;;;;0.30;0.30;;;19.00;99.90;;;;;;4436980;32;20360;-66
2023/07/13 01:30:23;;;;;;;0.30;0.30;;;19.00;99.90;;;;;;4444904;32;20128;-67
2023/07/13 01:32:49;;;;;;;0.62;0.40;;;19.00;99.90;;;;;;4434991;32;20069;-67
2023/07/13 01:35:16;;;;;;;0.30;0.30;;;19.00;99.90;;;;;;4444587;32;20053;-67
2023/07/13 01:37:42;;;;;;;0.40;0.40;;;19.00;99.90;;;;;;4436572;32;20074;-68
2023/07/13 01:40:08;;;;;;;0.30;0.30;;;19.00;99.90;;;;;;4435984;32;20069;-66
2023/07/13 01:42:34;;;;;;;1.25;0.40;;;18.90;99.90;;;;;;4441945;32;20609;-66
2023/07/13 01:44:59;;;;;;;0.20;0.20;;;19.00;99.90;;;;;;4439828;32;20065;-65
2023/07/13 01:47:26;;;;;;;0.30;0.30;;;18.90;99.90;;;;;;4441999;32;20057;-66
2023/07/13 01:49:51;;;;;;;0.20;0.20;;;18.80;99.90;;;;;;4441470;32;20861;-66
2023/07/13 01:52:17;;;;;;;0.43;0.30;;;19.00;99.90;;;;;;4445029;32;20089;-66
2023/07/13 01:54:42;;;;;;;0.30;0.30;;;18.90;99.90;;;;;;4434339;32;20115;-66
2023/07/13 01:57:08;;;;;;;0.40;0.40;;;19.00;99.90;;;;;;4439529;32;20077;-66
2023/07/13 01:59:34;;;;;;;0.25;0.25;;;19.00;99.90;;;;;;4439735;32;20109;-66
2023/07/13 02:01:59;;;;;;;0.30;0.30;;;18.90;99.90;;;;;;4439642;32;20119;-66
2023/07/13 02:04:25;;;;;;;0.37;0.37;;;18.80;99.90;;;;;;4442260;32;20077;-66
2023/07/13 02:06:50;;;;;;;1.45;0.85;;;18.80;99.90;;;;;;4438653;32;20061;-66
2023/07/13 02:09:16;;;;;;;0.30;0.30;;;18.60;99.90;;;;;;4443544;32;20466;-66
2023/07/13 02:11:41;;;;;;;0.60;0.60;;;18.70;99.90;;;;;;4443250;32;20073;-66
2023/07/13 02:14:07;;;;;;;0.20;0.20;;;18.50;99.90;;;;;;4436361;32;20082;-66
2023/07/13 02:16:32;;;;;;;0.20;0.20;;;18.50;99.90;;;;;;4442082;32;20069;-66
2023/07/13 02:18:58;;;;;;;1.65;0.52;;;18.50;99.90;;;;;;4440857;32;20073;-66
2023/07/13 02:21:24;;;;;;;1.08;0.30;;;18.40;99.90;;;;;;4442282;32;20525;-66
2023/07/13 02:23:50;;;;;;;2.20;0.70;;;18.30;99.90;;;;;;4442247;32;20101;-66
2023/07/13 02:26:16;;;;;;;0.55;0.52;;;18.30;99.90;;;;;;4438392;32;20061;-66
2023/07/13 02:28:41;;;;;;;0.40;0.40;;;18.30;99.90;;;;;;4439269;32;20057;-66
2023/07/13 02:31:09;;;;;;;0.30;0.30;;;18.30;99.90;;;;;;4440952;32;20185;-65
2023/07/13 02:33:35;;;;;;;0.20;0.20;;;18.20;99.90;;;;;;4435871;32;20524;-66
2023/07/13 02:36:00;;;;;;;0.90;0.65;;;18.30;99.90;;;;;;4446836;32;20069;-66
2023/07/13 02:38:27;;;;;;;0.20;0.20;;;18.40;99.90;;;;;;4438912;32;20053;-65
2023/07/13 02:40:52;;;;;;;0.55;0.55;;;18.40;99.90;;;;;;4443272;32;20089;-65
2023/07/13 02:43:18;;;;;;;0.75;0.50;;;18.30;99.90;;;;;;4440626;32;20085;-65
2023/07/13 02:45:45;;;;;;;0.50;0.50;;;18.20;99.90;;;;;;4443139;32;20082;-66
2023/07/13 02:48:10;;;;;;;0.47;0.47;;;18.20;99.90;;;;;;4442821;32;20058;-66
2023/07/13 02:50:35;;;;;;;0.30;0.30;;;18.20;99.90;;;;;;4451156;32;20056;-66
2023/07/13 02:53:01;;;;;;;0.40;0.40;;;18.30;99.90;;;;;;4448869;32;20107;-66
2023/07/13 02:55:26;;;;;;;0.30;0.30;;;18.40;99.90;;;;;;4442946;32;20078;-66
2023/07/13 02:57:52;;;;;;;0.30;0.30;;;18.40;99.90;;;;;;4450361;32;20061;-65
2023/07/13 03:00:18;;;;;;;32.00;1.08;;;18.40;99.90;;;;;;4444535;32;20537;-66
2023/07/13 03:02:43;;;;;;;0.37;0.37;;;18.40;99.90;;;;;;4446808;32;20061;-66
2023/07/13 03:05:12;;;;;;;0.20;0.20;;;18.40;99.90;;;;;;4450041;32;20419;-66
2023/07/13 03:07:38;;;;;;;0.37;0.37;;;18.30;99.90;;;;;;4443726;32;20070;-65
2023/07/13 03:10:06;;;;;;;0.85;0.60;;;18.20;99.90;;;;;;4443106;32;20111;-65
2023/07/13 03:12:31;;;;;;;0.80;0.73;;;18.20;99.90;;;;;;4451860;32;20065;-65
2023/07/13 03:14:57;;;;;;;2.12;0.88;;;18.20;99.90;;;;;;4447225;32;20065;-66
2023/07/13 03:17:23;;;;;;;0.40;0.40;;;18.10;99.90;;;;;;4447335;32;20119;-66
2023/07/13 03:19:50;;;;;;;0.30;0.30;;;18.10;99.90;;;;;;4446342;32;20068;-66
2023/07/13 03:22:18;;;;;;;0.35;0.35;;;18.30;99.90;;;;;;4444763;32;20078;-66
2023/07/13 03:24:44;;;;;;;0.30;0.30;;;18.20;99.90;;;;;;4446811;32;20086;-66
2023/07/13 03:27:10;;;;;;;0.30;0.30;;;18.10;99.90;;;;;;4449695;32;20066;-65
2023/07/13 03:29:35;;;;;;;0.85;0.75;;;18.20;99.90;;;;;;4444845;32;20084;-66
2023/07/13 03:32:01;;;;;;;0.47;0.47;;;18.20;99.90;;;;;;4447476;32;20175;-65
2023/07/13 03:34:27;;;;;;;0.52;0.30;;;18.10;99.90;;;;;;4442591;32;20306;-66
2023/07/13 03:36:55;;;;;;;0.88;0.40;;;18.20;99.90;;;;;;4450878;32;20078;-66
2023/07/13 03:39:20;;;;;;;0.62;0.62;;;18.20;99.90;;;;;;4443134;32;20073;-66
2023/07/13 03:41:46;;;;;;;0.30;0.30;;;18.20;99.90;;;;;;4446100;32;20111;-65
2023/07/13 03:44:11;;;;;;;0.30;0.30;;;18.10;99.90;;;;;;4439678;32;20121;-65
2023/07/13 03:46:37;;;;;;;0.50;0.50;;;18.10;99.90;;;;;;4452960;32;20062;-66
2023/07/13 03:49:05;;;;;;;0.30;0.30;;;18.20;99.90;;;;;;4442611;32;20132;-66
2023/07/13 03:51:30;;;;;;;0.80;0.40;;;18.20;99.90;;;;;;4438713;32;20061;-66
2023/07/13 03:53:56;;;;;;;0.30;0.30;;;18.20;99.90;;;;;;4442841;32;20097;-66
2023/07/13 03:56:22;;;;;;;0.30;0.30;;;18.10;99.90;;;;;;4441085;32;20077;-66
2023/07/13 03:58:49;;;;;;;0.50;0.50;;;18.20;99.90;;;;;;4450984;32;20069;-66
2023/07/13 04:01:16;;;;;;;0.30;0.30;;;18.30;99.90;;;;;;4440451;32;20072;-66
2023/07/13 04:03:42;;;;;;;0.37;0.37;;;18.30;99.90;;;;;;4447735;32;20112;-66
2023/07/13 04:06:15;;;;;;;0.28;0.28;;;18.10;99.90;;;;;;4441793;32;20069;-66
2023/07/13 04:08:41;;;;;;;11.63;0.80;;;18.30;99.90;;;;;;4447399;32;20060;-66
2023/07/13 04:11:07;;;;;;;0.30;0.30;;;18.20;99.90;;;;;;4445778;32;20078;-66
2023/07/13 04:13:32;;;;;;;1.73;1.02;;;18.30;99.90;;;;;;4451422;32;20073;-66
2023/07/13 04:15:58;;;;;;;0.40;0.40;;;18.30;99.90;;;;;;4451999;32;20062;-66
2023/07/13 04:18:24;;;;;;;1.20;0.70;;;18.30;99.90;;;;;;4451603;32;20127;-66
2023/07/13 04:20:50;;;;;;;0.30;0.30;;;18.30;99.90;;;;;;4447524;32;20093;-66
2023/07/13 04:23:17;;;;;;;0.50;0.40;;;18.30;99.90;;;;;;4451432;32;20128;-66
2023/07/13 04:25:45;;;;;;;0.52;0.50;;;18.30;99.90;;;;;;4449955;32;20136;-66
2023/07/13 04:28:11;;;;;;;1.45;1.05;;;18.40;99.90;;;;;;4457826;32;20041;-66
2023/07/13 04:30:37;;;;;;;1.58;0.80;;;18.40;99.90;;;;;;4451140;32;20077;-66
2023/07/13 04:33:02;;;;;;;0.40;0.40;;;18.50;99.90;;;;;;4453402;32;20054;-66
2023/07/13 04:35:28;;;;;;;0.50;0.50;;;18.50;99.90;;;;;;4449069;32;20069;-66
2023/07/13 04:37:53;;;;;;;0.45;0.45;;;18.60;99.90;;;;;;4452593;32;20485;-66
2023/07/13 04:40:20;;;;;;;0.30;0.30;;;18.60;99.90;;;;;;4449743;32;20077;-66
2023/07/13 04:42:46;;;;;;;0.45;0.45;;;18.60;99.90;;;;;;4452111;32;20088;-65
2023/07/13 04:45:13;;;;;;;0.95;0.73;;;18.60;99.90;;;;;;4456783;32;20089;-66
2023/07/13 04:47:39;;;;;;;0.60;0.60;;;18.80;99.90;;;;;;4459047;32;20101;-66
2023/07/13 04:50:06;;;;;;;0.30;0.30;;;18.80;99.90;;;;;;4454194;32;20057;-66
2023/07/13 04:52:32;;;;;;;0.47;0.40;;;18.80;99.90;;;;;;4452229;32;20086;-66
2023/07/13 04:54:59;;;;;;;0.40;0.40;;;18.80;99.90;;;;;;4451223;32;20061;-66
2023/07/13 04:57:25;;;;;;;0.22;0.22;;;18.90;99.90;;;;;;4457124;32;20066;-66
2023/07/13 04:59:50;;;;;;;0.30;0.30;;;18.90;99.90;;;;;;4452577;32;20065;-66
2023/07/13 05:02:16;;;;;;;0.47;0.47;;;18.90;99.90;;;;;;4446387;32;20070;-66
2023/07/13 05:04:41;;;;;;;0.28;0.28;;;19.00;99.90;;;;;;4446930;32;20070;-66
2023/07/13 05:07:07;;;;;;;0.30;0.30;;;19.00;99.90;;;;;;4449103;32;20033;-66
2023/07/13 05:09:32;;;;;;;0.62;0.50;;;19.10;99.90;;;;;;4446340;32;20061;-66
2023/07/13 05:11:58;;;;;;;0.30;0.30;;;19.10;99.90;;;;;;4449509;32;20109;-66
2023/07/13 05:14:23;;;;;;;1.30;0.62;;;19.20;99.90;;;;;;4451175;32;20050;-66
2023/07/13 05:16:49;;;;;;;0.25;0.25;;;19.20;99.90;;;;;;4454690;32;20084;-66
2023/07/13 05:19:14;;;;;;;0.60;0.30;;;19.30;99.90;;;;;;4455347;32;20080;-66
2023/07/13 05:21:41;;;;;;;0.20;0.20;;;19.30;99.90;;;;;;4453734;32;20085;-66
2023/07/13 05:24:06;;;;;;;0.28;0.28;;;19.40;99.90;;;;;;4455145;32;20070;-66
2023/07/13 05:26:32;;;;;;;0.30;0.30;;;19.40;99.90;;;;;;4453874;32;20053;-66
2023/07/13 05:28:57;;;;;;;0.37;0.37;;;19.50;99.90;;;;;;4450503;32;20061;-66
2023/07/13 05:31:23;;;;;;;0.30;0.30;;;19.60;99.90;;;;;;4447746;32;20101;-66
2023/07/13 05:33:48;;;;;;;0.20;0.20;;;19.70;99.90;;;;;;4450387;32;20041;-66
2023/07/13 05:36:13;;;;;;;0.30;0.30;;;19.80;99.90;;;;;;4445315;32;20042;-66
2023/07/13 05:38:40;;;;;;;0.30;0.30;;;19.80;99.90;;;;;;4449156;32;20146;-66
2023/07/13 05:41:05;;;;;;;1.23;0.88;;;19.80;99.90;;;;;;4454804;32;20120;-66
2023/07/13 05:43:31;;;;;;;0.35;0.35;;;19.90;99.90;;;;;;4446798;32;20038;-66
2023/07/13 05:45:57;;;;;;;5.03;0.60;;;19.90;99.90;;;;;;4451892;32;20052;-66
2023/07/13 05:48:23;;;;;;;0.35;0.35;;;19.90;99.90;;;;;;4453081;32;20061;-66
2023/07/13 05:50:49;;;;;;;0.30;0.30;;;20.00;99.90;;;;;;4447385;32;20090;-66
2023/07/13 05:53:15;;;;;;;0.30;0.30;;;20.00;99.90;;;;;;4451898;32;20037;-66
2023/07/13 05:55:42;;;;;;;0.28;0.28;;;20.00;99.90;;;;;;4451140;32;20077;-66
2023/07/13 05:58:08;;;;;;;0.20;0.20;;;20.00;99.90;;;;;;4448015;32;20045;-66
2023/07/13 06:00:33;;;;;;;0.20;0.20;;;20.10;99.90;;;;;;4450523;32;20071;-65
2023/07/13 06:02:59;;;;;;;2.28;0.75;;;20.00;99.90;;;;;;4453481;32;20054;-66
2023/07/13 06:05:24;;;;;;;0.20;0.20;;;20.20;99.90;;;;;;4457580;32;20120;-66
2023/07/13 06:07:50;;;;;;;0.60;0.50;;;20.20;99.90;;;;;;4454948;32;20184;-66
2023/07/13 06:10:15;;;;;;;0.40;0.40;;;20.30;99.90;;;;;;4453208;32;20038;-65
2023/07/13 06:12:41;;;;;;;0.28;0.28;;;20.40;99.90;;;;;;4448360;32;20065;-66
2023/07/13 06:15:07;;;;;;;0.20;0.20;;;20.50;99.90;;;;;;4454899;32;20060;-66
2023/07/13 06:17:33;;;;;;;0.40;0.40;;;20.50;99.90;;;;;;4458851;32;20067;-66
2023/07/13 06:19:58;;;;;;;0.40;0.40;;;20.60;99.90;;;;;;4449566;32;20054;-67
2023/07/13 06:22:23;;;;;;;0.40;0.30;;;20.70;99.90;;;;;;4438080;32;20074;-66
2023/07/13 06:24:49;;;;;;;0.40;0.40;;;20.70;99.90;;;;;;4436568;32;20160;-65
2023/07/13 06:27:14;;;;;;;0.50;0.37;;;20.70;99.90;;;;;;4440245;32;20106;-65
2023/07/13 06:29:40;;;;;;;0.20;0.20;;;20.80;99.90;;;;;;4431031;32;20438;-66
2023/07/13 06:32:06;;;;;;;0.30;0.30;;;20.90;99.90;;;;;;4431886;32;20077;-65
2023/07/13 06:34:31;;;;;;;0.40;0.40;;;20.90;99.90;;;;;;4433802;32;20077;-65
2023/07/13 06:36:57;;;;;;;0.20;0.20;;;20.90;99.90;;;;;;4438149;32;20050;-65
2023/07/13 06:39:23;;;;;;;2.12;0.93;;;21.00;99.90;;;;;;4438262;32;20111;-65
2023/07/13 06:41:48;;;;;;;2.28;1.08;;;20.90;99.90;;;;;;4436222;32;20069;-65
2023/07/13 06:44:14;;;;;;;0.50;0.50;;;20.90;99.90;;;;;;4435131;32;20080;-66
2023/07/13 06:46:39;;;;;;;0.30;0.30;;;20.90;99.90;;;;;;4434386;32;20093;-67
2023/07/13 06:49:05;;;;;;;2.35;0.60;;;21.00;99.90;;;;;;4438677;32;20057;-66
2023/07/13 06:51:30;;;;;;;0.30;0.30;;;21.10;99.90;;;;;;4440394;32;20061;-66
2023/07/13 06:53:56;;;;;;;0.20;0.20;;;21.10;99.90;;;;;;4440430;32;20064;-65
2023/07/13 06:56:21;;;;;;;0.62;0.62;;;21.20;99.90;;;;;;4435812;32;20526;-65
2023/07/13 06:58:47;;;;;;;3.15;0.80;;;21.20;99.90;;;;;;4438619;32;20326;-65
2023/07/13 07:01:12;;;;;;;0.30;0.30;;;21.20;99.90;;;;;;4437986;32;20064;-65
2023/07/13 07:03:38;;;;;;;0.20;0.20;;;21.20;99.90;;;;;;4438200;32;20543;-65
2023/07/13 07:06:14;;;;;;;0.30;0.30;;;21.30;99.90;;;;;;4435111;32;20066;-65
2023/07/13 07:08:40;;;;;;;0.30;0.30;;;21.30;99.90;;;;;;4430526;32;20089;-65
2023/07/13 07:11:08;;;;;;;0.20;0.20;;;21.40;99.90;;;;;;4431164;32;20053;-65
2023/07/13 07:13:33;;;;;;;0.30;0.30;;;21.50;99.90;;;;;;4439324;32;20072;-65
2023/07/13 07:16:00;;;;;;;0.37;0.37;;;21.70;99.90;;;;;;4430112;32;20080;-65
2023/07/13 07:18:26;;;;;;;0.22;0.22;;;21.80;99.90;;;;;;4435636;32;20079;-65
2023/07/13 07:20:52;;;;;;;0.20;0.20;;;21.90;99.90;;;;;;4437465;32;20065;-65
2023/07/13 07:23:18;;;;;;;0.20;0.20;;;21.70;99.90;;;;;;4433252;32;20073;-65
2023/07/13 07:25:44;;;;;;;0.22;0.22;;;21.70;99.90;;;;;;4433418;32;20077;-65
2023/07/13 07:28:10;;;;;;;0.47;0.47;;;21.90;99.90;;;;;;4436630;32;20093;-66
2023/07/13 07:30:36;;;;;;;0.50;0.50;;;22.10;99.90;;;;;;4433985;32;20459;-65
2023/07/13 07:33:01;;;;;;;0.20;0.20;;;22.30;99.90;;;;;;4433949;32;20127;-65
2023/07/13 07:35:27;;;;;;;0.20;0.20;;;22.40;99.90;;;;;;4439719;32;20528;-65
2023/07/13 07:37:52;;;;;;;0.65;0.65;;;22.30;99.90;;;;;;4437897;32;20077;-65
2023/07/13 07:40:18;;;;;;;14.05;0.70;;;22.40;99.90;;;;;;4432161;32;20065;-65
2023/07/13 07:42:44;;;;;;;0.75;0.37;;;22.40;99.90;;;;;;4430392;32;20060;-65
2023/07/13 07:45:11;;;;;;;0.32;0.32;;;22.40;99.90;;;;;;4437334;32;20069;-65
2023/07/13 07:47:37;;;;;;;0.20;0.20;;;22.60;99.90;;;;;;4434962;32;20112;-65
2023/07/13 07:50:03;;;;;;;0.28;0.28;;;22.70;99.90;;;;;;4431389;32;20066;-65
2023/07/13 07:52:29;;;;;;;0.20;0.20;;;22.80;99.90;;;;;;4432590;32;20087;-65
2023/07/13 07:54:54;;;;;;;0.35;0.35;;;22.90;99.90;;;;;;4434433;32;20492;-65
2023/07/13 07:57:20;;;;;;;0.30;0.30;;;22.70;99.90;;;;;;4428365;32;20061;-65
2023/07/13 07:59:45;;;;;;;0.20;0.20;;;22.60;99.90;;;;;;4431838;32;20073;-66
2023/07/13 08:02:11;;;;;;;0.25;0.25;;;22.70;99.90;;;;;;4427608;32;20096;-66
2023/07/13 08:04:36;;;;;;;0.30;0.30;;;22.70;99.90;;;;;;4434406;32;20065;-66
2023/07/13 08:07:02;;;;;;;8.77;0.68;;;22.60;99.90;;;;;;4432348;32;20116;-66
2023/07/13 08:09:28;;;;;;;0.30;0.30;;;22.50;99.90;;;;;;4442788;32;20090;-66
2023/07/13 08:11:54;;;;;;;0.30;0.30;;;22.50;99.90;;;;;;4440588;32;20496;-66
2023/07/13 08:14:20;;;;;;;0.30;0.30;;;22.60;99.90;;;;;;4432515;32;20116;-66
2023/07/13 08:16:45;;;;;;;0.15;0.15;;;22.60;99.90;;;;;;4433023;32;20069;-66
2023/07/13 08:19:11;;;;;;;0.57;0.55;;;22.70;99.90;;;;;;4438678;32;20068;-67
2023/07/13 08:21:37;;;;;;;3.42;0.43;;;22.80;99.90;;;;;;4432346;32;20074;-66
2023/07/13 08:24:02;;;;;;;0.20;0.20;;;22.90;99.60;;;;;;4431574;32;20135;-67
2023/07/13 08:26:28;;;;;;;3.25;0.93;;;22.80;99.50;;;;;;4440723;32;20068;-67
2023/07/13 08:28:53;;;;;;;0.32;0.32;;;22.90;99.90;;;;;;4431221;32;20069;-67
2023/07/13 08:31:19;;;;;;;0.22;0.22;;;22.70;99.90;;;;;;4437153;32;20081;-67
2023/07/13 08:33:45;;;;;;;4.12;1.02;;;22.60;99.90;;;;;;4434804;32;20073;-66
2023/07/13 08:36:10;;;;;;;0.57;0.50;;;22.50;99.70;;;;;;4438347;32;20513;-66
2023/07/13 08:38:36;;;;;;;0.20;0.20;;;22.60;99.60;;;;;;4437231;32;20069;-67
2023/07/13 08:41:10;;;;;;;0.40;0.32;;;22.60;99.90;;;;;;4432946;32;20069;-66
2023/07/13 08:43:37;;;;;;;0.20;0.20;;;22.60;99.90;;;;;;4433963;32;20489;-66
2023/07/13 08:46:10;;;;;;;1.85;0.47;;;22.40;99.90;;;;;;4432397;32;20065;-65
2023/07/13 08:48:50;;;;;;;0.50;0.50;;;22.50;99.90;;;;;;4434244;32;20069;-65
2023/07/13 08:51:23;;;;;;;0.20;0.20;;;22.60;99.90;;;;;;4437409;32;20608;-66
2023/07/13 08:53:51;;;;;;;0.20;0.20;;;22.80;99.90;;;;;;4433910;32;20077;-66
2023/07/13 08:56:21;;;;;;;0.20;0.20;;;22.80;99.90;;;;;;4431956;32;20078;-66
2023/07/13 08:58:51;;;;;;;0.40;0.40;;;23.10;99.90;;;;;;4438105;32;20066;-66
2023/07/13 09:01:55;;;;;;;0.20;0.20;;;23.20;99.40;;;;;;4435633;32;20113;-66
2023/07/13 09:04:33;;;;;;;0.28;0.28;;;23.40;98.40;;;;;;4425679;32;20617;-65
2023/07/13 09:07:24;;;;;;;0.22;0.22;;;23.50;97.60;;;;;;4434166;32;20194;-66
2023/07/13 09:10:05;;;;;;;0.75;0.30;;;23.70;97.80;;;;;;4427016;32;20062;-66
2023/07/13 09:12:44;;;;;;;0.10;0.10;;;24.00;96.10;;;;;;4432423;32;20049;-65
2023/07/13 09:15:28;;;;;;;0.30;0.30;;;24.10;95.80;;;;;;4432354;32;20199;-65
2023/07/13 09:17:59;;;;;;;0.35;0.35;;;24.30;96.10;;;;;;4434147;32;20513;-65
2023/07/13 09:20:32;;;;;;;9.05;1.27;;;24.40;96.40;;;;;;4438356;32;20570;-65
2023/07/13 09:23:04;;;;;;;0.57;0.57;;;24.60;95.20;;;;;;4433547;32;20052;-66
2023/07/13 09:25:36;;;;;;;0.30;0.30;;;24.50;95.40;;;;;;4436793;32;20195;-65
2023/07/13 09:28:10;;;;;;;0.22;0.22;;;24.60;95.70;;;;;;4431121;32;20153;-65
2023/07/13 09:30:58;;;;;;;0.30;0.30;;;24.50;96.40;;;;;;4430469;32;20101;-66
2023/07/13 09:33:24;;;;;;;3.83;0.40;;;24.20;95.30;;;;;;4424249;32;20124;-66
2023/07/13 09:35:50;;;;;;;1.83;1.15;;;23.80;95.90;;;;;;4431923;32;20089;-66
2023/07/13 09:38:19;;;;;;;0.22;0.22;;;23.80;96.90;;;;;;4433186;32;20053;-66
2023/07/13 09:40:58;;;;;;;0.75;0.55;;;23.70;97.00;;;;;;4427597;32;20073;-66
2023/07/13 09:43:24;;;;;;;0.15;0.15;;;23.80;95.80;;;;;;4427702;32;20471;-65
2023/07/13 09:45:50;;;;;;;0.15;0.15;;;24.00;94.70;;;;;;4429857;32;20069;-66
2023/07/13 09:48:17;;;;;;;0.52;0.43;;;24.50;94.90;;;;;;4430375;32;20057;-66
2023/07/13 09:50:44;;;;;;;0.20;0.20;;;24.70;94.10;;;;;;4432782;32;20054;-66
2023/07/13 09:53:16;;;;;;;1.05;0.65;;;24.60;93.90;;;;;;4435389;32;20418;-66
2023/07/13 09:55:44;;;;;;;0.20;0.20;;;24.20;94.00;;;;;;4428400;32;20153;-66
2023/07/13 09:58:14;;;;;;;0.20;0.20;;;24.00;94.30;;;;;;4435129;32;20061;-65
2023/07/13 10:00:41;;;;;;;0.20;0.20;;;23.60;93.40;;;;;;4427972;32;20050;-65
2023/07/13 10:03:18;;;;;;;7.43;0.68;;;23.60;93.30;;;;;;4432114;32;20069;-65
2023/07/13 10:05:46;;;;;;;1.00;0.70;;;24.10;93.30;;;;;;4426677;32;20394;-65
2023/07/13 10:08:30;;;;;;;0.40;0.40;;;24.50;92.40;;;;;;4424565;32;20124;-66
2023/07/13 10:11:01;;;;;;;0.30;0.30;;;25.10;92.20;;;;;;4430360;32;20073;-65
2023/07/13 10:13:32;;;;;;;0.30;0.30;;;25.10;91.20;;;;;;4432325;32;20076;-65
2023/07/13 10:15:59;;;;;;;0.47;0.40;;;25.30;91.60;;;;;;4429620;32;20755;-65
2023/07/13 10:18:26;;;;;;;0.22;0.22;;;25.80;91.90;;;;;;4438555;32;20054;-65
2023/07/13 10:21:13;;;;;;;1.00;0.68;;;26.10;90.80;;;;;;4431527;32;20131;-66
2023/07/13 10:23:38;;;;;;;0.35;0.35;;;26.00;91.00;;;;;;4426866;32;20061;-66
2023/07/13 10:26:09;;;;;;;0.35;0.35;;;26.00;91.00;;;;;;4429561;32;20077;-66
2023/07/13 10:28:36;;;;;;;;;;;25.80;90.00;;;;;;4432872;32;20062;-66
2023/07/13 10:31:04;;;;;;;0.13;0.13;;;25.20;90.80;;;;;;4427717;32;19955;-66
2023/07/13 10:33:30;;;;;;;0.22;0.22;;;25.00;91.10;;;;;;4435381;32;20068;-65
2023/07/13 10:36:08;;;;;;;0.10;0.10;;;24.80;90.80;;;;;;4436441;32;20170;-66
2023/07/13 10:38:34;;;;;;;0.20;0.20;;;24.70;90.60;;;;;;4434196;32;20509;-66
2023/07/13 10:41:03;;;;;;;0.20;0.20;;;24.20;91.40;;;;;;4435380;32;20077;-66
2023/07/13 10:43:36;;;;;;;1.23;0.67;;;24.10;90.90;;;;;;4430171;32;20157;-66
2023/07/13 10:46:05;;;;;;;0.45;0.45;;;24.30;91.00;;;;;;4429461;32;20115;-66
2023/07/13 10:48:34;;;;;;;0.30;0.30;;;25.00;90.70;;;;;;4433204;32;20053;-66
2023/07/13 10:51:01;;;;;;;0.28;0.28;;;25.40;90.30;;;;;;4435129;32;20073;-66
2023/07/13 10:53:30;;;;;;;0.22;0.22;;;25.90;89.20;;;;;;4432273;32;20070;-67
2023/07/13 10:56:02;;;;;;;1.20;0.40;;;26.30;88.80;;;;;;4429329;32;20112;-66
2023/07/13 10:58:43;;;;;;;0.10;0.10;;;26.40;87.00;;;;;;4431844;32;20285;-66
2023/07/13 11:01:15;;;;;;;0.20;0.20;;;26.60;88.60;;;;;;4430376;32;20065;-67
2023/07/13 11:03:49;;;;;;;0.40;0.40;;;26.30;85.30;;;;;;4431796;32;20426;-66
2023/07/13 11:06:18;;;;;;;0.25;0.25;;;26.30;84.50;;;;;;4437179;32;20069;-66
2023/07/13 11:08:49;;;;;;;0.13;0.10;;;26.70;82.80;;;;;;4430418;32;20099;-67
2023/07/13 11:11:38;;;;;;;0.10;0.10;;;26.70;80.40;;;;;;4423983;32;20079;-67
2023/07/13 11:14:06;;;;;;;0.90;0.57;;;26.80;79.90;;;;;;4428156;32;20644;-66
2023/07/13 11:16:43;;;;;;;1.95;0.75;;;27.10;78.00;;;;;;4435984;32;20575;-65
2023/07/13 11:19:27;;;;;;;0.10;0.10;;;27.30;78.20;;;;;;4433769;32;20521;-65
2023/07/13 11:22:11;;;;;;;0.73;0.30;;;27.50;79.10;;;;;;4431968;32;20070;-66
2023/07/13 11:24:59;;;;;;;1.30;0.50;;;28.30;77.80;;;;;;4427113;32;20098;-66
2023/07/13 11:27:48;;;;;;;9.13;1.30;;;28.70;76.00;;;;;;4429099;32;20077;-66
2023/07/13 11:30:24;;;;;;;0.05;0.05;;;29.00;76.80;;;;;;4426628;32;20053;-66
2023/07/13 11:33:05;;;;;;;0.00;0.00;;;28.70;77.20;;;;;;4432086;32;20426;-66
2023/07/13 11:35:32;;;;;;;0.25;0.13;;;28.40;78.00;;;;;;4429459;32;20576;-66
2023/07/13 11:37:58;;;;;;;0.20;0.20;;;28.40;78.30;;;;;;4438275;32;20089;-66
2023/07/13 11:40:27;;;;;;;0.10;0.10;;;28.30;79.80;;;;;;4434530;32;20453;-66
2023/07/13 11:42:59;;;;;;;0.20;0.20;;;28.30;79.40;;;;;;4433541;32;20077;-66
2023/07/13 11:45:25;;;;;;;0.37;0.37;;;27.90;79.00;;;;;;4439588;32;20134;-66
2023/07/13 11:47:50;;;;;;;0.95;0.30;;;28.30;77.90;;;;;;4435152;32;118446;-66
2023/07/13 11:50:20;;;;;;;0.20;0.20;;;28.40;77.40;;;;;;4433615;32;20527;-66
2023/07/13 11:52:46;;;;;;;0.55;0.37;;;28.80;76.50;;;;;;4431790;32;20065;-66
2023/07/13 11:55:17;;;;;;;0.10;0.10;;;28.50;73.60;;;;;;4434228;32;20770;-66
2023/07/13 11:57:50;;;;;;;0.57;0.32;;;28.70;75.20;;;;;;4433577;32;20065;-66
2023/07/13 12:00:21;;;;;;;0.10;0.10;;;29.30;75.80;;;;;;4431752;32;20093;-66
2023/07/13 12:02:51;;;;;;;1.12;0.85;;;29.20;74.70;;;;;;4431802;32;20121;-66
2023/07/13 12:05:18;;;;;;;0.10;0.10;;;29.70;74.70;;;;;;4435963;32;20240;-66
2023/07/13 12:07:44;;;;;;;0.20;0.20;;;29.50;73.10;;;;;;4434066;32;20061;-66
2023/07/13 12:10:23;;;;;;;0.10;0.10;;;29.30;73.40;;;;;;4429685;32;20163;-65
2023/07/13 12:12:54;;;;;;;0.20;0.20;;;29.60;73.90;;;;;;4431869;32;20057;-66
2023/07/13 12:15:22;;;;;;;1.15;0.43;;;30.20;72.90;;;;;;4430050;32;20105;-66
2023/07/13 12:17:48;;;;;;;0.17;0.17;;;30.60;71.40;;;;;;4430187;32;20094;-66
2023/07/13 12:20:23;;;;;;;0.20;0.20;;;30.30;69.60;;;;;;4433314;32;20135;-66
2023/07/13 12:22:50;;;;;;;0.10;0.10;;;30.10;70.60;;;;;;4435884;32;20053;-66
2023/07/13 12:25:17;;;;;;;1.75;0.73;;;30.60;71.20;;;;;;4431718;32;20093;-66
2023/07/13 12:27:48;;;;;;;0.00;0.00;;;30.20;71.20;;;;;;4433153;32;20065;-66
2023/07/13 12:30:25;;;;;;;0.30;0.30;;;29.90;72.20;;;;;;4434563;32;20466;-66
2023/07/13 12:33:11;;;;;;;0.80;0.13;;;29.70;73.00;;;;;;4432799;32;20057;-66
2023/07/13 12:35:47;;;;;;;0.20;0.20;;;30.10;73.30;;;;;;4427233;32;20069;-66
2023/07/13 12:38:13;;;;;;;0.10;0.10;;;30.80;71.50;;;;;;4432789;32;20143;-66
2023/07/13 12:40:40;;;;;;;0.10;0.10;;;31.20;70.10;;;;;;4432924;32;20073;-66
2023/07/13 12:43:13;;;;;;;1.55;0.82;;;31.20;69.80;;;;;;4433712;32;20133;-65
2023/07/13 12:45:38;;;;;;;0.73;0.30;;;30.50;70.60;;;;;;4436854;32;20101;-65
2023/07/13 12:48:13;;;;;;;0.03;0.03;;;30.40;72.20;;;;;;4440468;32;20137;-65
2023/07/13 12:50:42;;;;;;;0.20;0.17;;;30.20;71.60;;;;;;4433799;32;20169;-65
2023/07/13 12:53:15;;;;;;;5.15;1.52;;;30.60;71.50;;;;;;4436278;32;20085;-66